Kaiei Maru No.8 — 7JUD — position and weather

sailwx.info

Track history (hours):
 
Tides and Currents Weather Stations Pressure Air Temp Water Temp Dewpoint Dewpoint Depression Visibility Wind Speed Wind Dir Waves Ship Positions

Kaiei Maru No.8

Last reported at 2017-Oct-04 04:51 UTC. Time now 2017-Oct-18 02:00 UTC.
Position N 35°27' E 139°57'.
Warning: this ship's position is 13 days out of date.

Length 71 m; draft 5 m.

Type: Cargo ship. MMSI: 431007299.

Date/timePositionNaut miles runAvg speedWind from/ knotsBaromVisibWave heightAir tempDewpointWater temp
2017-Oct-04 04:51N 35°27' E 139°57'3 5.5
2017-Oct-04 04:16N 35°29' E 139°54'311.0
2017-Oct-04 04:00N 35°28' E 139°51'510.8
2017-Oct-04 03:30N 35°23' E 139°48'3 6.4
2017-Oct-04 03:00N 35°20' E 139°50'0 0.0
2017-Oct-04 02:30N 35°20' E 139°50'0 0.0
2017-Oct-04 02:01N 35°20' E 139°50'0 0.0
2017-Oct-04 01:30N 35°20' E 139°50'0 0.0
2017-Oct-04 01:00N 35°20' E 139°50'0 0.0
2017-Oct-04 00:30N 35°20' E 139°50'0 0.0
2017-Oct-04 00:00N 35°20' E 139°50'0 0.0
2017-Oct-03 23:31N 35°20' E 139°50'0 0.0
2017-Oct-03 23:00N 35°20' E 139°50'2 4.4
2017-Oct-03 22:30N 35°22' E 139°49'0 0.5
2017-Oct-03 22:00N 35°22' E 139°49'0 0.0
2017-Oct-03 21:30N 35°22' E 139°49'0 0.0
2017-Oct-03 21:00N 35°22' E 139°49'0 0.0
2017-Oct-03 20:27N 35°22' E 139°49'0 0.0
2017-Oct-03 20:00N 35°22' E 139°49'0 0.0
2017-Oct-03 19:30N 35°22' E 139°49'0 0.0
2017-Oct-03 19:00N 35°22' E 139°49'0 0.0
2017-Oct-03 18:30N 35°22' E 139°49'0 0.0
2017-Oct-03 18:00N 35°22' E 139°49'0 0.0
2017-Oct-03 17:30N 35°22' E 139°49'0 0.0
2017-Oct-03 17:00N 35°22' E 139°49'0 0.0
2017-Oct-03 16:30N 35°22' E 139°49'0 0.0
2017-Oct-03 16:00N 35°22' E 139°49'0 0.0
2017-Oct-03 15:30N 35°22' E 139°49'0 0.0
2017-Oct-03 15:00N 35°22' E 139°49'4 4.5
2017-Oct-03 14:00N 35°20' E 139°44'510.9
2017-Oct-03 13:30N 35°15' E 139°47'510.9
2017-Oct-03 13:00N 35°09' E 139°47'510.5
2017-Oct-03 12:30N 35°05' E 139°43'510.5
2017-Oct-03 12:00N 35°02' E 139°38'611.1
2017-Oct-03 11:30N 34°59' E 139°32'  
2017-Sep-26 06:15N 34°53' E 139°49'310.4
2017-Sep-26 05:59N 34°54' E 139°46'612.0
2017-Sep-26 05:30N 34°60' E 139°44'611.3
2017-Sep-26 05:00N 35°05' E 139°45'510.9
2017-Sep-26 04:30N 35°11' E 139°46'611.2
2017-Sep-26 04:00N 35°16' E 139°46'510.7
2017-Sep-26 03:30N 35°21' E 139°42'510.8
2017-Sep-26 03:00N 35°26' E 139°43'3 5.9
2017-Sep-26 02:30N 35°29' E 139°42'0 0.9
2017-Sep-26 02:00N 35°29' E 139°43'0 0.0
2017-Sep-26 01:30N 35°29' E 139°43'0 0.0
2017-Sep-26 00:59N 35°29' E 139°43'0 0.0
2017-Sep-26 00:29N 35°29' E 139°43'0 0.0
2017-Sep-25 23:56N 35°29' E 139°43'0 0.0
2017-Sep-25 23:31N 35°29' E 139°43'3 6.8
2017-Sep-25 23:00N 35°30' E 139°47'2 3.7
2017-Sep-25 22:29N 35°29' E 139°49'0 0.0
2017-Sep-25 21:59N 35°29' E 139°49'0 0.0
2017-Sep-25 21:29N 35°29' E 139°49'0 0.0
2017-Sep-25 20:59N 35°29' E 139°49'0 0.0
2017-Sep-25 20:29N 35°29' E 139°49'0 0.1
2017-Sep-25 19:56N 35°29' E 139°49'0 0.1
2017-Sep-25 19:29N 35°29' E 139°49'0 0.0
2017-Sep-25 18:59N 35°29' E 139°49'0 0.0
2017-Sep-25 18:29N 35°29' E 139°49'0 0.0
2017-Sep-25 17:59N 35°29' E 139°49'0 0.0
2017-Sep-25 17:29N 35°29' E 139°49'0 0.0
2017-Sep-25 16:59N 35°29' E 139°49'0 0.1
2017-Sep-25 16:29N 35°29' E 139°49'0 0.0
2017-Sep-25 15:59N 35°29' E 139°49'0 0.0
2017-Sep-25 15:29N 35°29' E 139°49'0 0.0
2017-Sep-25 14:59N 35°29' E 139°49'0 0.1
2017-Sep-25 14:29N 35°29' E 139°49'0 0.0
2017-Sep-25 13:59N 35°29' E 139°49'0 0.0
2017-Sep-25 13:29N 35°29' E 139°49'0 0.1
2017-Sep-25 12:59N 35°29' E 139°49'0 0.0
2017-Sep-25 12:29N 35°29' E 139°49'0 0.0
2017-Sep-25 11:59N 35°29' E 139°49'0 0.1
2017-Sep-25 11:29N 35°29' E 139°49'0 0.0
2017-Sep-25 10:59N 35°29' E 139°49'0 0.0
2017-Sep-25 10:29N 35°29' E 139°49'0 0.0
2017-Sep-25 09:59N 35°29' E 139°49'0 0.0
2017-Sep-25 09:29N 35°29' E 139°49'0 0.0
2017-Sep-25 08:59N 35°29' E 139°49'0 0.0
2017-Sep-25 08:29N 35°29' E 139°49'0 0.0
2017-Sep-25 07:59N 35°29' E 139°49'0 0.0
2017-Sep-25 07:29N 35°29' E 139°49'0 0.1
2017-Sep-25 06:59N 35°29' E 139°49'0 0.0
2017-Sep-25 06:29N 35°29' E 139°49'0 0.0
2017-Sep-25 05:59N 35°29' E 139°49'0 0.0
2017-Sep-25 05:29N 35°29' E 139°49'0 0.1
2017-Sep-25 04:59N 35°29' E 139°49'0 0.0
2017-Sep-25 04:29N 35°29' E 139°49'0 0.0
2017-Sep-25 03:59N 35°29' E 139°49'0 0.0
2017-Sep-25 03:29N 35°29' E 139°49'0 0.1
2017-Sep-25 03:00N 35°29' E 139°49'510.8
2017-Sep-25 02:30N 35°33' E 139°54'611.9
2017-Sep-25 01:59N 35°38' E 139°58'2 0.4
2017-Sep-24 20:23N 35°40' E 139°57'410.1
2017-Sep-24 19:57N 35°36' E 139°59'510.7
2017-Sep-24 19:30N 35°31' E 139°58'  
Track history (hours):
 
Tides and Currents Weather Stations Pressure Air Temp Water Temp Dewpoint Dewpoint Depression Visibility Wind Speed Wind Dir Waves Ship Positions

Kaiei Maru No.8

Last reported at 2017-Oct-04 04:51 UTC. Time now 2017-Oct-18 02:00 UTC.
Position N 35°27' E 139°57'.
Warning: this ship's position is 13 days out of date.

Length 71 m; draft 5 m.

Type: Cargo ship. MMSI: 431007299.

Date/timePositionNaut miles runAvg speedWind from/ knotsBaromVisibWave heightAir tempDewpointWater temp
2017-Oct-04 04:51N 35°27' E 139°57'3 5.5
2017-Oct-04 04:16N 35°29' E 139°54'311.0
2017-Oct-04 04:00N 35°28' E 139°51'510.8
2017-Oct-04 03:30N 35°23' E 139°48'3 6.4
2017-Oct-04 03:00N 35°20' E 139°50'0 0.0
2017-Oct-04 02:30N 35°20' E 139°50'0 0.0
2017-Oct-04 02:01N 35°20' E 139°50'0 0.0
2017-Oct-04 01:30N 35°20' E 139°50'0 0.0
2017-Oct-04 01:00N 35°20' E 139°50'0 0.0
2017-Oct-04 00:30N 35°20' E 139°50'0 0.0
2017-Oct-04 00:00N 35°20' E 139°50'0 0.0
2017-Oct-03 23:31N 35°20' E 139°50'0 0.0
2017-Oct-03 23:00N 35°20' E 139°50'2 4.4
2017-Oct-03 22:30N 35°22' E 139°49'0 0.5
2017-Oct-03 22:00N 35°22' E 139°49'0 0.0
2017-Oct-03 21:30N 35°22' E 139°49'0 0.0
2017-Oct-03 21:00N 35°22' E 139°49'0 0.0
2017-Oct-03 20:27N 35°22' E 139°49'0 0.0
2017-Oct-03 20:00N 35°22' E 139°49'0 0.0
2017-Oct-03 19:30N 35°22' E 139°49'0 0.0
2017-Oct-03 19:00N 35°22' E 139°49'0 0.0
2017-Oct-03 18:30N 35°22' E 139°49'0 0.0
2017-Oct-03 18:00N 35°22' E 139°49'0 0.0
2017-Oct-03 17:30N 35°22' E 139°49'0 0.0
2017-Oct-03 17:00N 35°22' E 139°49'0 0.0
2017-Oct-03 16:30N 35°22' E 139°49'0 0.0
2017-Oct-03 16:00N 35°22' E 139°49'0 0.0
2017-Oct-03 15:30N 35°22' E 139°49'0 0.0
2017-Oct-03 15:00N 35°22' E 139°49'4 4.5
2017-Oct-03 14:00N 35°20' E 139°44'510.9
2017-Oct-03 13:30N 35°15' E 139°47'510.9
2017-Oct-03 13:00N 35°09' E 139°47'510.5
2017-Oct-03 12:30N 35°05' E 139°43'510.5
2017-Oct-03 12:00N 35°02' E 139°38'611.1
2017-Oct-03 11:30N 34°59' E 139°32'  
2017-Sep-26 06:15N 34°53' E 139°49'310.4
2017-Sep-26 05:59N 34°54' E 139°46'612.0
2017-Sep-26 05:30N 34°60' E 139°44'611.3
2017-Sep-26 05:00N 35°05' E 139°45'510.9
2017-Sep-26 04:30N 35°11' E 139°46'611.2
2017-Sep-26 04:00N 35°16' E 139°46'510.7
2017-Sep-26 03:30N 35°21' E 139°42'510.8
2017-Sep-26 03:00N 35°26' E 139°43'3 5.9
2017-Sep-26 02:30N 35°29' E 139°42'0 0.9
2017-Sep-26 02:00N 35°29' E 139°43'0 0.0
2017-Sep-26 01:30N 35°29' E 139°43'0 0.0
2017-Sep-26 00:59N 35°29' E 139°43'0 0.0
2017-Sep-26 00:29N 35°29' E 139°43'0 0.0
2017-Sep-25 23:56N 35°29' E 139°43'0 0.0
2017-Sep-25 23:31N 35°29' E 139°43'3 6.8
2017-Sep-25 23:00N 35°30' E 139°47'2 3.7
2017-Sep-25 22:29N 35°29' E 139°49'0 0.0
2017-Sep-25 21:59N 35°29' E 139°49'0 0.0
2017-Sep-25 21:29N 35°29' E 139°49'0 0.0
2017-Sep-25 20:59N 35°29' E 139°49'0 0.0
2017-Sep-25 20:29N 35°29' E 139°49'0 0.1
2017-Sep-25 19:56N 35°29' E 139°49'0 0.1
2017-Sep-25 19:29N 35°29' E 139°49'0 0.0
2017-Sep-25 18:59N 35°29' E 139°49'0 0.0
2017-Sep-25 18:29N 35°29' E 139°49'0 0.0
2017-Sep-25 17:59N 35°29' E 139°49'0 0.0
2017-Sep-25 17:29N 35°29' E 139°49'0 0.0
2017-Sep-25 16:59N 35°29' E 139°49'0 0.1
2017-Sep-25 16:29N 35°29' E 139°49'0 0.0
2017-Sep-25 15:59N 35°29' E 139°49'0 0.0
2017-Sep-25 15:29N 35°29' E 139°49'0 0.0
2017-Sep-25 14:59N 35°29' E 139°49'0 0.1
2017-Sep-25 14:29N 35°29' E 139°49'0 0.0
2017-Sep-25 13:59N 35°29' E 139°49'0 0.0
2017-Sep-25 13:29N 35°29' E 139°49'0 0.1
2017-Sep-25 12:59N 35°29' E 139°49'0 0.0
2017-Sep-25 12:29N 35°29' E 139°49'0 0.0
2017-Sep-25 11:59N 35°29' E 139°49'0 0.1
2017-Sep-25 11:29N 35°29' E 139°49'0 0.0
2017-Sep-25 10:59N 35°29' E 139°49'0 0.0
2017-Sep-25 10:29N 35°29' E 139°49'0 0.0
2017-Sep-25 09:59N 35°29' E 139°49'0 0.0
2017-Sep-25 09:29N 35°29' E 139°49'0 0.0
2017-Sep-25 08:59N 35°29' E 139°49'0 0.0
2017-Sep-25 08:29N 35°29' E 139°49'0 0.0
2017-Sep-25 07:59N 35°29' E 139°49'0 0.0
2017-Sep-25 07:29N 35°29' E 139°49'0 0.1
2017-Sep-25 06:59N 35°29' E 139°49'0 0.0
2017-Sep-25 06:29N 35°29' E 139°49'0 0.0
2017-Sep-25 05:59N 35°29' E 139°49'0 0.0
2017-Sep-25 05:29N 35°29' E 139°49'0 0.1
2017-Sep-25 04:59N 35°29' E 139°49'0 0.0
2017-Sep-25 04:29N 35°29' E 139°49'0 0.0
2017-Sep-25 03:59N 35°29' E 139°49'0 0.0
2017-Sep-25 03:29N 35°29' E 139°49'0 0.1
2017-Sep-25 03:00N 35°29' E 139°49'510.8
2017-Sep-25 02:30N 35°33' E 139°54'611.9
2017-Sep-25 01:59N 35°38' E 139°58'2 0.4
2017-Sep-24 20:23N 35°40' E 139°57'410.1
2017-Sep-24 19:57N 35°36' E 139°59'510.7
2017-Sep-24 19:30N 35°31' E 139°58'  

Dump ship's entire track history